createdAt,value
2018-09-30T00:00:05.587Z,3.89
2018-09-30T00:03:05.537Z,3.76
2018-09-30T00:06:05.517Z,3.76
2018-09-30T00:09:05.478Z,3.47
2018-09-30T00:12:05.448Z,3.52
2018-09-30T00:15:05.408Z,3.52
2018-09-30T00:18:05.360Z,3.61
2018-09-30T00:21:05.346Z,3.58
2018-09-30T00:24:05.303Z,3.60
2018-09-30T00:27:05.248Z,3.54
2018-09-30T00:30:05.259Z,3.54
2018-09-30T00:33:05.210Z,3.40
2018-09-30T00:36:05.183Z,3.27
2018-09-30T00:39:05.113Z,3.20
2018-09-30T00:42:05.093Z,3.18
2018-09-30T00:45:05.055Z,3.10
2018-09-30T00:48:05.030Z,3.07
2018-09-30T00:51:04.987Z,3.07
2018-09-30T00:54:04.957Z,3.16
2018-09-30T00:57:04.930Z,3.28
2018-09-30T01:00:04.938Z,3.09
2018-09-30T01:03:04.865Z,2.94
2018-09-30T01:06:04.840Z,3.20
2018-09-30T01:09:04.789Z,3.43
2018-09-30T01:12:04.782Z,3.71
2018-09-30T01:15:04.737Z,3.85
2018-09-30T01:18:04.711Z,3.82
2018-09-30T01:21:04.645Z,3.83
2018-09-30T01:24:04.654Z,3.70
2018-09-30T01:27:04.583Z,3.83
2018-09-30T01:30:04.562Z,3.70
2018-09-30T01:33:04.521Z,3.33
2018-09-30T01:36:04.500Z,3.27
2018-09-30T01:39:04.447Z,3.13
2018-09-30T01:42:04.425Z,3.00
2018-09-30T01:45:04.393Z,2.81
2018-09-30T01:48:04.368Z,2.67
2018-09-30T01:51:04.320Z,2.27
2018-09-30T01:54:04.300Z,2.27
2018-09-30T01:57:04.252Z,2.53
2018-09-30T02:00:04.221Z,2.56
2018-09-30T02:03:04.176Z,2.55
2018-09-30T02:06:04.160Z,2.28
2018-09-30T02:09:04.117Z,2.69
2018-09-30T02:12:04.097Z,2.91
2018-09-30T02:15:04.070Z,2.92
2018-09-30T02:18:04.032Z,2.95
2018-09-30T02:21:03.976Z,3.03
2018-09-30T02:24:03.986Z,3.10
2018-09-30T02:27:03.922Z,2.92
2018-09-30T02:30:03.922Z,2.58
2018-09-30T02:33:03.848Z,2.81
2018-09-30T02:36:03.833Z,2.81
2018-09-30T02:39:03.780Z,2.66
2018-09-30T02:42:03.761Z,2.45
2018-09-30T02:45:03.719Z,2.31
2018-09-30T02:48:03.692Z,2.10
2018-09-30T02:51:03.650Z,1.80
2018-09-30T02:54:03.617Z,2.20
2018-09-30T02:57:03.575Z,2.35
2018-09-30T03:00:03.557Z,2.38
2018-09-30T03:03:03.525Z,2.13
2018-09-30T03:06:03.495Z,2.53
2018-09-30T03:09:03.446Z,2.63
2018-09-30T03:12:03.430Z,2.94
2018-09-30T03:15:03.628Z,2.61
2018-09-30T03:18:03.357Z,2.46
2018-09-30T03:21:03.307Z,2.28
2018-09-30T03:24:03.287Z,2.34
2018-09-30T03:27:03.265Z,2.26
2018-09-30T03:30:03.221Z,2.06
2018-09-30T03:33:03.199Z,2.19
2018-09-30T03:36:03.162Z,2.33
2018-09-30T03:39:03.110Z,2.15
2018-09-30T03:42:03.135Z,1.87
2018-09-30T03:45:03.044Z,1.89
2018-09-30T03:48:03.026Z,1.76
2018-09-30T03:51:02.978Z,2.02
2018-09-30T03:54:02.961Z,2.52
2018-09-30T03:57:02.910Z,2.63
2018-09-30T04:00:02.922Z,2.53
2018-09-30T04:03:02.873Z,2.27
2018-09-30T04:06:02.835Z,2.63
2018-09-30T04:09:02.791Z,3.10
2018-09-30T04:12:02.758Z,3.36
2018-09-30T04:15:02.732Z,3.43
2018-09-30T04:18:02.691Z,3.42
2018-09-30T04:21:02.641Z,3.39
2018-09-30T04:24:02.617Z,3.28
2018-09-30T04:27:02.582Z,3.16
2018-09-30T04:30:02.557Z,3.20
2018-09-30T04:33:02.578Z,3.00
2018-09-30T04:36:02.497Z,2.63
2018-09-30T04:39:02.440Z,2.28
2018-09-30T04:42:02.412Z,2.22
2018-09-30T04:45:02.387Z,1.85
2018-09-30T04:48:02.362Z,2.04
2018-09-30T04:51:02.308Z,1.99
2018-09-30T04:54:02.283Z,1.82
2018-09-30T04:57:02.244Z,2.08
2018-09-30T05:00:02.236Z,2.22
2018-09-30T05:03:02.177Z,2.28
2018-09-30T05:06:02.156Z,1.94
2018-09-30T05:09:02.108Z,1.64
2018-09-30T05:12:02.086Z,1.46
2018-09-30T05:15:02.044Z,1.52
2018-09-30T05:18:02.028Z,1.72
2018-09-30T05:21:01.988Z,1.58
2018-09-30T05:24:01.963Z,1.50
2018-09-30T05:27:01.905Z,1.57
2018-09-30T05:30:01.910Z,1.50
2018-09-30T05:33:01.842Z,1.51
2018-09-30T05:36:03.098Z,1.72
2018-09-30T05:39:01.784Z,2.02
2018-09-30T05:42:01.755Z,2.15
2018-09-30T05:45:01.699Z,1.89
2018-09-30T05:48:01.715Z,1.69
2018-09-30T05:51:01.643Z,2.16
2018-09-30T05:54:01.623Z,2.45
2018-09-30T05:57:01.573Z,2.31
2018-09-30T06:00:01.557Z,2.26
2018-09-30T06:03:01.511Z,2.27
2018-09-30T06:06:01.487Z,2.63
2018-09-30T06:09:01.483Z,4.08
2018-09-30T06:12:01.415Z,4.39
2018-09-30T06:15:01.394Z,4.16
2018-09-30T06:18:01.356Z,3.83
2018-09-30T06:21:01.303Z,3.64
2018-09-30T06:24:01.329Z,3.49
2018-09-30T06:27:01.234Z,3.42
2018-09-30T06:30:01.222Z,3.61
2018-09-30T06:33:01.164Z,3.72
2018-09-30T06:36:01.143Z,3.75
2018-09-30T06:39:01.098Z,3.92
2018-09-30T06:42:01.086Z,3.85
2018-09-30T06:45:01.126Z,4.06
2018-09-30T06:48:01.031Z,4.19
2018-09-30T06:51:01.001Z,4.28
2018-09-30T06:54:00.977Z,4.55
2018-09-30T06:57:00.897Z,4.70
2018-09-30T07:00:00.905Z,5.09
2018-09-30T07:03:00.825Z,5.13
2018-09-30T07:06:00.848Z,5.38
2018-09-30T07:09:00.782Z,5.56
2018-09-30T07:12:00.750Z,5.70
2018-09-30T07:15:00.719Z,6.04
2018-09-30T07:18:00.695Z,6.32
2018-09-30T07:21:00.628Z,7.04
2018-09-30T07:24:00.612Z,7.62
2018-09-30T07:27:00.569Z,8.15
2018-09-30T07:30:00.545Z,8.99
2018-09-30T07:33:00.496Z,10.40
2018-09-30T07:36:00.523Z,13.06
2018-09-30T07:39:00.457Z,14.88
2018-09-30T07:42:00.421Z,16.27
2018-09-30T07:45:00.373Z,17.03
2018-09-30T07:48:00.355Z,18.25
2018-09-30T07:51:00.312Z,18.55
2018-09-30T07:54:00.268Z,18.27
2018-09-30T07:57:00.233Z,18.67
2018-09-30T08:00:00.230Z,18.80
2018-09-30T08:03:00.161Z,19.02
2018-09-30T08:06:00.154Z,19.87
2018-09-30T08:09:00.107Z,19.50
2018-09-30T08:12:00.100Z,18.61
2018-09-30T08:15:00.040Z,19.14
2018-09-30T08:18:00.019Z,20.03
2018-09-30T08:20:59.961Z,20.10
2018-09-30T08:23:59.986Z,19.20
2018-09-30T08:26:59.901Z,18.87
2018-09-30T08:29:59.885Z,19.54
2018-09-30T08:32:59.858Z,19.15
2018-09-30T08:35:59.830Z,20.51
2018-09-30T08:38:59.778Z,20.47
2018-09-30T08:41:59.756Z,21.13
2018-09-30T08:44:59.712Z,21.66
2018-09-30T08:47:59.709Z,20.91
2018-09-30T08:50:59.696Z,20.99
2018-09-30T08:53:59.738Z,20.68
2018-09-30T08:56:59.592Z,20.30
2018-09-30T08:59:59.558Z,19.29
2018-09-30T09:02:59.526Z,19.01
2018-09-30T09:05:59.514Z,20.06
2018-09-30T09:08:59.453Z,20.49
2018-09-30T09:11:59.446Z,20.99
2018-09-30T09:14:59.399Z,21.14
2018-09-30T09:17:59.359Z,20.16
2018-09-30T09:20:59.315Z,21.41
2018-09-30T09:23:59.349Z,20.58
2018-09-30T09:26:59.278Z,20.93
2018-09-30T09:29:59.274Z,21.34
2018-09-30T09:32:59.244Z,20.81
2018-09-30T09:35:59.255Z,21.32
2018-09-30T09:38:59.158Z,21.69
2018-09-30T09:41:59.123Z,21.39
2018-09-30T09:44:59.081Z,21.46
2018-09-30T09:47:59.041Z,22.75
2018-09-30T09:50:59.058Z,21.81
2018-09-30T09:53:59.254Z,21.39
2018-09-30T09:56:58.960Z,21.41
2018-09-30T09:59:58.917Z,21.85
2018-09-30T10:02:58.895Z,22.83
2018-09-30T10:05:58.888Z,22.49
2018-09-30T10:08:58.830Z,22.47
2018-09-30T10:11:58.809Z,21.69
2018-09-30T10:14:58.766Z,20.86
2018-09-30T10:17:59.040Z,21.39
2018-09-30T10:20:58.823Z,21.82
2018-09-30T10:23:58.663Z,22.78
2018-09-30T10:26:58.668Z,21.45
2018-09-30T10:29:58.627Z,20.98
2018-09-30T10:32:58.587Z,22.06
2018-09-30T10:35:58.567Z,22.96
2018-09-30T10:38:58.605Z,23.35
2018-09-30T10:41:58.492Z,22.75
2018-09-30T10:44:58.472Z,22.16
2018-09-30T10:47:58.490Z,23.86
2018-09-30T10:50:58.381Z,23.04
2018-09-30T10:53:58.374Z,23.83
2018-09-30T10:56:58.388Z,24.60
2018-09-30T10:59:58.290Z,25.07
2018-09-30T11:02:58.236Z,23.97
2018-09-30T11:05:58.238Z,24.75
2018-09-30T11:08:58.229Z,23.61
2018-09-30T11:11:58.156Z,23.64
2018-09-30T11:14:58.112Z,22.84
2018-09-30T11:17:58.137Z,23.05
2018-09-30T11:20:58.094Z,23.94
2018-09-30T11:23:58.066Z,24.63
2018-09-30T11:26:57.999Z,24.77
2018-09-30T11:29:57.980Z,23.29
2018-09-30T11:32:57.965Z,24.42
2018-09-30T11:35:58.218Z,23.58
2018-09-30T11:38:57.867Z,23.87
2018-09-30T11:41:57.869Z,23.77
2018-09-30T11:44:57.801Z,22.93
2018-09-30T11:47:57.788Z,22.80
2018-09-30T11:50:57.755Z,23.40
2018-09-30T11:53:57.718Z,22.99
2018-09-30T11:56:57.670Z,23.14
2018-09-30T11:59:57.674Z,22.50
2018-09-30T12:02:57.657Z,22.86
2018-09-30T12:05:57.614Z,22.82
2018-09-30T12:08:57.607Z,23.15
2018-09-30T12:11:57.541Z,23.49
2018-09-30T12:14:57.504Z,24.27
2018-09-30T12:17:57.479Z,23.95
2018-09-30T12:20:57.451Z,22.92
2018-09-30T12:23:57.392Z,23.09
2018-09-30T12:26:57.383Z,23.39
2018-09-30T12:29:57.363Z,22.06
2018-09-30T12:32:57.323Z,22.84
2018-09-30T12:35:57.300Z,22.89
2018-09-30T12:38:57.254Z,23.55
2018-09-30T12:41:57.201Z,22.67
2018-09-30T12:44:57.165Z,22.59
2018-09-30T12:47:57.180Z,22.77
2018-09-30T12:50:57.091Z,22.25
2018-09-30T12:53:57.101Z,22.71
2018-09-30T12:56:57.211Z,22.97
2018-09-30T12:59:57.004Z,21.81
2018-09-30T13:02:56.996Z,22.07
2018-09-30T13:05:56.970Z,21.85
2018-09-30T13:08:56.910Z,21.56
2018-09-30T13:11:56.898Z,21.21
2018-09-30T13:14:56.833Z,21.82
2018-09-30T13:17:56.813Z,21.60
2018-09-30T13:20:56.803Z,22.41
2018-09-30T13:23:56.750Z,22.41
2018-09-30T13:26:56.698Z,21.54
2018-09-30T13:29:56.694Z,22.35
2018-09-30T13:32:56.641Z,22.22
2018-09-30T13:35:56.896Z,22.25
2018-09-30T13:38:56.595Z,22.38
2018-09-30T13:41:56.542Z,22.37
2018-09-30T13:44:56.504Z,22.02
2018-09-30T13:47:56.529Z,21.29
2018-09-30T13:50:56.438Z,21.94
2018-09-30T13:53:56.423Z,21.90
2018-09-30T13:56:56.399Z,21.42
2018-09-30T13:59:56.362Z,21.79
2018-09-30T14:02:56.327Z,22.34
2018-09-30T14:05:56.276Z,21.90
2018-09-30T14:08:56.233Z,21.61
2018-09-30T14:11:56.236Z,21.51
2018-09-30T14:14:56.174Z,21.09
2018-09-30T14:17:56.216Z,20.49
2018-09-30T14:20:56.099Z,20.49
2018-09-30T14:23:56.091Z,20.61
2018-09-30T14:26:56.202Z,20.62
2018-09-30T14:29:56.009Z,20.15
2018-09-30T14:32:56.024Z,20.21
2018-09-30T14:35:55.992Z,20.09
2018-09-30T14:38:55.894Z,20.05
2018-09-30T14:41:55.916Z,19.98
2018-09-30T14:44:55.857Z,19.84
2018-09-30T14:47:55.856Z,20.09
2018-09-30T14:50:55.761Z,20.03
2018-09-30T14:53:55.759Z,20.06
2018-09-30T14:56:55.701Z,20.05
2018-09-30T14:59:55.690Z,19.83
2018-09-30T15:02:55.628Z,19.60
2018-09-30T15:05:55.635Z,20.10
2018-09-30T15:08:55.555Z,20.28
2018-09-30T15:12:00.559Z,20.39
2018-09-30T15:14:55.500Z,20.54
2018-09-30T15:17:55.519Z,20.27
2018-09-30T15:20:55.440Z,20.16
2018-09-30T15:23:55.445Z,20.64
2018-09-30T15:26:55.356Z,20.13
2018-09-30T15:29:55.333Z,20.31
2018-09-30T15:32:55.286Z,19.54
2018-09-30T15:35:55.617Z,19.46
2018-09-30T15:38:55.307Z,19.39
2018-09-30T15:41:55.294Z,19.33
2018-09-30T15:44:55.148Z,19.47
2018-09-30T15:47:56.041Z,19.18
2018-09-30T15:50:55.089Z,19.54
2018-09-30T15:53:55.067Z,19.31
2018-09-30T15:56:55.012Z,19.69
2018-09-30T15:59:54.993Z,19.23
2018-09-30T16:02:54.977Z,19.18
2018-09-30T16:05:56.088Z,18.98
2018-09-30T16:08:54.958Z,19.29
2018-09-30T16:11:54.888Z,19.01
2018-09-30T16:14:54.926Z,18.21
2018-09-30T16:17:54.819Z,17.14
2018-09-30T16:20:54.784Z,16.35
2018-09-30T16:23:54.724Z,15.93
2018-09-30T16:26:54.744Z,15.60
2018-09-30T16:29:54.671Z,15.38
2018-09-30T16:32:54.723Z,15.15
2018-09-30T16:35:54.627Z,14.86
2018-09-30T16:38:54.577Z,14.64
2018-09-30T16:41:54.518Z,14.52
2018-09-30T16:44:54.476Z,14.35
2018-09-30T16:47:54.457Z,14.32
2018-09-30T16:50:54.457Z,14.27
2018-09-30T16:53:54.400Z,14.19
2018-09-30T16:56:54.399Z,13.91
2018-09-30T16:59:54.455Z,13.65
2018-09-30T17:02:54.278Z,13.55
2018-09-30T17:05:54.262Z,13.38
2018-09-30T17:08:54.223Z,13.29
2018-09-30T17:11:54.201Z,13.36
2018-09-30T17:14:54.399Z,13.38
2018-09-30T17:17:54.572Z,13.33
2018-09-30T17:20:54.078Z,13.37
2018-09-30T17:23:54.058Z,13.15
